Time;durP1;ratioP1;P1;durP2;ratioP2;P2;SDS_P1;SDS_P2;PMS_P1;PMS_P2;Temp;Humidity;BMP_temperature;BMP_pressure;BME280_temperature;BME280_humidity;BME280_pressure;Samples;Min_cycle;Max_cycle;Signal;HPM_P1;HPM_P2
2022/03/07 00:03:55;;;;;;;;;;;1.90;61.70;;;;;;8403810;28;19924;-73
2022/03/07 00:07:57;;;;;;;;;;;1.90;61.50;;;;;;8372319;28;19947;-72
2022/03/07 00:12:11;;;;;;;;;;;1.80;61.40;;;;;;8407805;28;19935;-73
2022/03/07 00:16:13;;;;;;;;;;;1.70;61.20;;;;;;8393831;28;19939;-73
2022/03/07 00:20:15;;;;;;;;;;;1.60;61.40;;;;;;8400045;28;19924;-73
2022/03/07 00:24:17;;;;;;;;;;;1.60;61.50;;;;;;8390081;28;19924;-73
2022/03/07 00:28:18;;;;;;;;;;;1.60;61.50;;;;;;8404060;28;19932;-73
2022/03/07 00:32:20;;;;;;;;;;;1.50;61.40;;;;;;8385008;28;19931;-73
2022/03/07 00:36:22;;;;;;;;;;;1.50;61.40;;;;;;8407155;28;19932;-73
2022/03/07 00:40:23;;;;;;;;;;;1.40;61.40;;;;;;8407168;28;19963;-73
2022/03/07 00:44:25;;;;;;;;;;;1.40;61.50;;;;;;8395820;28;19935;-72
2022/03/07 00:48:27;;;;;;;;;;;1.40;61.70;;;;;;8387527;28;19924;-72
2022/03/07 00:52:28;;;;;;;;;;;1.40;61.80;;;;;;8394714;28;20034;-72
2022/03/07 00:56:30;;;;;;;;;;;1.40;61.70;;;;;;8399492;28;20352;-73
2022/03/07 01:00:35;;;;;;;;;;;1.30;61.60;;;;;;8393189;28;19939;-73
2022/03/07 01:04:37;;;;;;;;;;;1.30;61.40;;;;;;8403320;28;19988;-73
2022/03/07 01:08:38;;;;;;;;;;;1.20;61.40;;;;;;8403125;28;19931;-73
2022/03/07 01:12:40;;;;;;;;;;;1.10;61.30;;;;;;8397011;28;19934;-74
2022/03/07 01:16:42;;;;;;;;;;;1.10;61.40;;;;;;8404185;28;19943;-73
2022/03/07 01:20:44;;;;;;;;;;;1.00;61.40;;;;;;8413502;28;20322;-73
2022/03/07 01:24:45;;;;;;;;;;;0.90;61.50;;;;;;8377541;28;20410;-73
2022/03/07 01:28:47;;;;;;;;;;;0.80;61.60;;;;;;8399172;28;19928;-72
2022/03/07 01:32:49;;;;;;;;;;;0.70;61.40;;;;;;8400299;28;19990;-73
2022/03/07 01:36:51;;;;;;;;;;;0.70;61.90;;;;;;8400067;28;20291;-73
2022/03/07 01:40:52;;;;;;;;;;;0.70;61.60;;;;;;8399438;28;19924;-73
2022/03/07 01:44:54;;;;;;;;;;;0.70;61.60;;;;;;8406262;28;20303;-74
2022/03/07 01:48:56;;;;;;;;;;;0.70;61.80;;;;;;8404037;28;20026;-73
2022/03/07 01:52:58;;;;;;;;;;;0.60;61.50;;;;;;8398921;28;20038;-73
2022/03/07 01:57:02;;;;;;;;;;;0.60;61.50;;;;;;8400988;28;20291;-73
2022/03/07 02:01:04;;;;;;;;;;;0.50;61.40;;;;;;8374752;28;20000;-73
2022/03/07 02:05:05;;;;;;;;;;;0.50;61.40;;;;;;8401282;28;19967;-72
2022/03/07 02:09:08;;;;;;;;;;;0.40;61.40;;;;;;8396699;28;19935;-72
2022/03/07 02:13:11;;;;;;;;;;;0.40;61.40;;;;;;8375874;28;19938;-73
2022/03/07 02:17:12;;;;;;;;;;;0.40;61.60;;;;;;8398436;28;19932;-72
2022/03/07 02:21:15;;;;;;;;;;;0.30;61.50;;;;;;8392469;28;20319;-74
2022/03/07 02:25:17;;;;;;;;;;;0.30;61.60;;;;;;8386108;28;20372;-73
2022/03/07 02:29:19;;;;;;;;;;;0.20;61.70;;;;;;8388144;28;20011;-72
2022/03/07 02:33:20;;;;;;;;;;;0.20;61.80;;;;;;8405738;28;19935;-73
2022/03/07 02:37:22;;;;;;;;;;;0.10;61.60;;;;;;8379109;28;19932;-73
2022/03/07 02:41:24;;;;;;;;;;;0.00;61.80;;;;;;8398544;28;19932;-72
2022/03/07 02:45:25;;;;;;;;;;;-0.10;61.70;;;;;;8381223;28;19931;-73
2022/03/07 02:49:27;;;;;;;;;;;-0.10;61.80;;;;;;8397965;28;19932;-73
2022/03/07 02:53:28;;;;;;;;;;;-0.10;62.00;;;;;;8394318;28;20403;-72
2022/03/07 02:57:30;;;;;;;;;;;-0.20;62.10;;;;;;8387701;28;19924;-73
2022/03/07 03:01:32;;;;;;;;;;;-0.20;62.40;;;;;;8381809;28;19925;-73
2022/03/07 03:05:34;;;;;;;;;;;-0.30;62.00;;;;;;8400472;28;19928;-73
2022/03/07 03:09:35;;;;;;;;;;;-0.30;62.10;;;;;;8406779;28;19928;-73
2022/03/07 03:13:37;;;;;;;;;;;-0.30;62.10;;;;;;8410223;28;19932;-73
2022/03/07 03:17:40;;;;;;;;;;;-0.30;61.90;;;;;;8418419;28;19927;-73
2022/03/07 03:21:41;;;;;;;;;;;-0.30;62.10;;;;;;8408697;28;19939;-73
2022/03/07 03:25:43;;;;;;;;;;;-0.40;61.80;;;;;;8383630;28;19928;-73
2022/03/07 03:29:45;;;;;;;;;;;-0.40;61.90;;;;;;8385432;28;22251;-72
2022/03/07 03:33:46;;;;;;;;;;;-0.50;62.00;;;;;;8378431;28;20361;-73
2022/03/07 03:37:48;;;;;;;;;;;-0.60;62.00;;;;;;8405315;28;19925;-73
2022/03/07 03:41:50;;;;;;;;;;;-0.60;62.00;;;;;;8406152;28;20281;-72
2022/03/07 03:45:51;;;;;;;;;;;-0.70;62.00;;;;;;8383502;28;19939;-73
2022/03/07 03:49:53;;;;;;;;;;;-0.70;62.00;;;;;;8399639;28;19925;-73
2022/03/07 03:53:55;;;;;;;;;;;-0.70;62.00;;;;;;8406828;28;19939;-74
2022/03/07 03:57:56;;;;;;;;;;;-0.80;62.00;;;;;;8392546;28;19931;-73
2022/03/07 04:01:58;;;;;;;;;;;-0.80;62.00;;;;;;8400744;28;19924;-72
2022/03/07 04:06:00;;;;;;;;;;;-0.90;62.00;;;;;;8388079;28;19929;-73
2022/03/07 04:10:02;;;;;;;;;;;-1.00;61.80;;;;;;8405883;28;19924;-73
2022/03/07 04:14:04;;;;;;;;;;;-1.00;62.00;;;;;;8397036;28;19932;-73
2022/03/07 04:18:06;;;;;;;;;;;-1.10;61.70;;;;;;8401199;28;20241;-74
2022/03/07 04:22:08;;;;;;;;;;;-1.10;61.90;;;;;;8402824;28;19928;-73
2022/03/07 04:26:09;;;;;;;;;;;-1.20;61.90;;;;;;8390461;28;19947;-73
2022/03/07 04:30:11;;;;;;;;;;;-1.20;62.00;;;;;;8382498;28;19947;-72
2022/03/07 04:34:13;;;;;;;;;;;-1.30;61.90;;;;;;8398462;28;20687;-73
2022/03/07 04:38:15;;;;;;;;;;;-1.30;62.00;;;;;;8389705;28;19931;-72
2022/03/07 04:42:16;;;;;;;;;;;-1.30;62.00;;;;;;8406380;28;20379;-72
2022/03/07 04:46:18;;;;;;;;;;;-1.40;61.90;;;;;;8408325;28;19975;-74
2022/03/07 04:50:20;;;;;;;;;;;-1.40;62.10;;;;;;8407855;28;19928;-73
2022/03/07 04:54:21;;;;;;;;;;;-1.50;62.00;;;;;;8392927;28;19959;-73
2022/03/07 04:58:24;;;;;;;;;;;-1.50;62.10;;;;;;8407165;28;19931;-73
2022/03/07 05:02:25;;;;;;;;;;;-1.50;62.60;;;;;;8401531;28;19951;-73
2022/03/07 05:06:27;;;;;;;;;;;-1.50;62.30;;;;;;8402343;28;19924;-73
2022/03/07 05:10:29;;;;;;;;;;;-1.50;62.30;;;;;;8394153;28;20380;-73
2022/03/07 05:14:31;;;;;;;;;;;-1.50;62.30;;;;;;8388809;28;19924;-73
2022/03/07 05:18:32;;;;;;;;;;;-1.50;62.20;;;;;;8382940;28;19924;-73
2022/03/07 05:22:34;;;;;;;;;;;-1.50;62.20;;;;;;8384189;28;19935;-73
2022/03/07 05:26:36;;;;;;;;;;;-1.50;62.30;;;;;;8406088;28;20027;-73
2022/03/07 05:30:38;;;;;;;;;;;-1.60;62.30;;;;;;8405784;28;19965;-73
2022/03/07 05:34:40;;;;;;;;;;;-1.60;62.10;;;;;;8410541;28;19931;-73
2022/03/07 05:38:41;;;;;;;;;;;-1.60;62.30;;;;;;8406915;28;19924;-73
2022/03/07 05:42:44;;;;;;;;;;;-1.70;62.70;;;;;;8408283;28;19925;-73
2022/03/07 05:46:45;;;;;;;;;;;-1.70;62.60;;;;;;8419186;28;19924;-74
2022/03/07 05:50:47;;;;;;;;;;;-1.80;62.90;;;;;;8405356;28;20018;-73
2022/03/07 05:54:49;;;;;;;;;;;-1.80;62.70;;;;;;8395360;28;19932;-73
2022/03/07 05:58:50;;;;;;;;;;;-1.80;63.00;;;;;;8400395;28;19967;-73
2022/03/07 06:02:52;;;;;;;;;;;-1.90;62.80;;;;;;8404229;28;19960;-73
2022/03/07 06:06:54;;;;;;;;;;;-1.90;62.80;;;;;;8405362;28;20209;-73
2022/03/07 06:10:55;;;;;;;;;;;-1.90;63.10;;;;;;8404734;28;19978;-73
2022/03/07 06:14:57;;;;;;;;;;;-1.90;63.00;;;;;;8408828;28;19975;-73
2022/03/07 06:18:59;;;;;;;;;;;-1.90;63.20;;;;;;8391857;28;19928;-73
2022/03/07 06:23:01;;;;;;;;;;;-1.90;63.90;;;;;;8401423;28;19944;-73
2022/03/07 06:27:02;;;;;;;;;;;-1.90;63.10;;;;;;8394354;28;19925;-73
2022/03/07 06:31:04;;;;;;;;;;;-1.80;64.10;;;;;;8405993;28;19936;-73
2022/03/07 06:35:06;;;;;;;;;;;-1.80;63.60;;;;;;8402436;28;19929;-74
2022/03/07 06:39:08;;;;;;;;;;;-1.80;63.50;;;;;;8383835;28;19931;-73
2022/03/07 06:43:10;;;;;;;;;;;-1.70;64.10;;;;;;8415931;28;19931;-73
2022/03/07 06:47:11;;;;;;;;;;;-1.70;64.10;;;;;;8405098;28;20293;-73
2022/03/07 06:51:13;;;;;;;;;;;-1.60;64.10;;;;;;8407547;28;20399;-73
2022/03/07 06:55:15;;;;;;;;;;;-1.50;64.60;;;;;;8390202;28;19932;-73
2022/03/07 06:59:17;;;;;;;;;;;-1.30;64.80;;;;;;8414673;28;20038;-73
2022/03/07 07:03:19;;;;;;;;;;;-1.20;65.20;;;;;;8401771;28;20291;-73
2022/03/07 07:07:20;;;;;;;;;;;-1.10;65.90;;;;;;8401043;28;19924;-74
2022/03/07 07:11:22;;;;;;;;;;;-1.00;66.20;;;;;;8423054;28;19924;-73
2022/03/07 07:15:24;;;;;;;;;;;-0.90;66.90;;;;;;8410407;28;19936;-74
2022/03/07 07:19:25;;;;;;;;;;;-0.70;66.50;;;;;;8413067;28;19924;-71
2022/03/07 07:23:27;;;;;;;;;;;-0.50;66.80;;;;;;8395593;28;19923;-70
2022/03/07 07:27:29;;;;;;;;;;;-0.30;67.10;;;;;;8421236;28;19928;-71
2022/03/07 07:31:30;;;;;;;;;;;-0.10;67.70;;;;;;8416665;28;19924;-71
2022/03/07 07:35:34;;;;;;;;;;;0.10;68.50;;;;;;8392349;28;20276;-71
2022/03/07 07:39:35;;;;;;;;;;;0.30;69.10;;;;;;8411589;28;19946;-71
2022/03/07 07:43:37;;;;;;;;;;;0.50;68.30;;;;;;8405174;28;19933;-71
2022/03/07 07:47:39;;;;;;;;;;;0.70;69.40;;;;;;8404519;28;20356;-71
2022/03/07 07:51:41;;;;;;;;;;;0.80;69.20;;;;;;8406161;28;19924;-71
2022/03/07 07:55:42;;;;;;;;;;;1.00;70.30;;;;;;8419749;28;19924;-70
2022/03/07 07:59:44;;;;;;;;;;;1.10;70.90;;;;;;8397151;28;19928;-71
2022/03/07 08:04:06;;;;;;;;;;;1.40;71.40;;;;;;8399752;28;19974;-71
2022/03/07 08:08:08;;;;;;;;;;;1.60;72.20;;;;;;8405711;28;19950;-71
2022/03/07 08:12:10;;;;;;;;;;;1.80;72.00;;;;;;8391476;28;19932;-71
2022/03/07 08:16:12;;;;;;;;;;;2.10;71.90;;;;;;8402586;28;19925;-71
2022/03/07 08:20:13;;;;;;;;;;;2.30;72.40;;;;;;8410054;28;19982;-71
2022/03/07 08:24:15;;;;;;;;;;;2.50;73.00;;;;;;8410071;28;20437;-71
2022/03/07 08:28:17;;;;;;;;;;;2.80;73.70;;;;;;8389344;28;19924;-71
2022/03/07 08:32:19;;;;;;;;;;;3.00;73.40;;;;;;8393110;28;19931;-71
2022/03/07 08:36:20;;;;;;;;;;;3.20;73.40;;;;;;8414093;28;20382;-71
2022/03/07 08:40:22;;;;;;;;;;;3.50;73.80;;;;;;8406412;28;19991;-71
2022/03/07 08:44:25;;;;;;;;;;;3.80;73.80;;;;;;8410046;28;19960;-71
2022/03/07 08:48:27;;;;;;;;;;;4.10;73.90;;;;;;8390417;28;19924;-71
2022/03/07 08:52:28;;;;;;;;;;;4.30;74.30;;;;;;8406479;28;19931;-70
2022/03/07 08:56:30;;;;;;;;;;;4.40;73.80;;;;;;8412366;28;19928;-70
2022/03/07 09:00:32;;;;;;;;;;;4.60;74.20;;;;;;8413479;28;19924;-70
2022/03/07 09:04:34;;;;;;;;;;;4.80;73.90;;;;;;8406403;28;19946;-70
2022/03/07 09:08:35;;;;;;;;;;;5.00;73.70;;;;;;8386785;28;20334;-70
2022/03/07 09:12:37;;;;;;;;;;;5.10;73.60;;;;;;8410625;28;20371;-70
2022/03/07 09:16:39;;;;;;;;;;;5.30;74.10;;;;;;8387229;28;19933;-70
2022/03/07 09:20:41;;;;;;;;;;;5.50;73.60;;;;;;8418683;28;19931;-70
2022/03/07 09:24:42;;;;;;;;;;;5.60;73.80;;;;;;8409888;28;19936;-70
2022/03/07 09:28:44;;;;;;;;;;;5.80;73.50;;;;;;8403333;28;19936;-70
2022/03/07 09:32:46;;;;;;;;;;;5.90;73.80;;;;;;8412713;28;19932;-70
2022/03/07 09:36:47;;;;;;;;;;;6.00;73.80;;;;;;8411648;28;19931;-70
2022/03/07 09:40:51;;;;;;;;;;;6.10;73.90;;;;;;8415928;28;19928;-70
2022/03/07 09:44:54;;;;;;;;;;;6.20;74.10;;;;;;8404111;28;20778;-70
2022/03/07 09:48:56;;;;;;;;;;;6.30;73.80;;;;;;8406939;28;20399;-70
2022/03/07 09:52:57;;;;;;;;;;;6.40;74.10;;;;;;8414097;28;19968;-72
2022/03/07 09:56:59;;;;;;;;;;;6.60;74.10;;;;;;8420494;28;19928;-71
2022/03/07 10:01:05;;;;;;;;;;;7.00;74.80;;;;;;8418713;28;19924;-71
2022/03/07 10:05:07;;;;;;;;;;;7.30;75.00;;;;;;8403147;28;19924;-71
2022/03/07 10:09:08;;;;;;;;;;;7.60;76.40;;;;;;8407043;28;19924;-70
2022/03/07 10:13:11;;;;;;;;;;;7.80;77.90;;;;;;8406037;28;20008;-71
2022/03/07 10:17:26;;;;;;;;;;;8.10;81.00;;;;;;8407473;28;19925;-71
2022/03/07 10:21:27;;;;;;;;;;;8.30;82.90;;;;;;8408233;28;20375;-70
2022/03/07 10:25:31;;;;;;;;;;;8.60;84.30;;;;;;8402104;28;20252;-71
2022/03/07 10:29:32;;;;;;;;;;;8.70;84.20;;;;;;8410360;28;19924;-71
2022/03/07 10:33:34;;;;;;;;;;;8.70;83.50;;;;;;8407841;28;19924;-71
2022/03/07 10:37:37;;;;;;;;;;;8.70;80.90;;;;;;8405721;28;19924;-71
2022/03/07 10:41:40;;;;;;;;;;;8.80;82.70;;;;;;8406966;28;20276;-71
2022/03/07 10:45:46;;;;;;;;;;;9.20;83.40;;;;;;8407379;28;19951;-71
2022/03/07 10:49:54;;;;;;;;;;;9.30;83.20;;;;;;8414732;28;19924;-71
2022/03/07 10:53:55;;;;;;;;;;;9.30;82.60;;;;;;8407003;28;19924;-71
2022/03/07 10:58:11;;;;;;;;;;;9.60;80.70;;;;;;8415203;28;20472;-71
2022/03/07 11:02:14;;;;;;;;;;;10.10;76.90;;;;;;8414279;28;19932;-71
2022/03/07 11:06:16;;;;;;;;;;;10.40;81.00;;;;;;8388994;28;19932;-71
2022/03/07 11:10:22;;;;;;;;;;;10.90;90.80;;;;;;8409094;28;20061;-71
2022/03/07 11:14:24;;;;;;;;;;;11.50;92.90;;;;;;8387537;28;19924;-72
2022/03/07 11:18:26;;;;;;;;;;;11.90;91.80;;;;;;8414200;28;19985;-71
2022/03/07 11:22:28;;;;;;;;;;;12.40;94.50;;;;;;8420648;28;20263;-71
2022/03/07 11:26:30;;;;;;;;;;;12.60;92.10;;;;;;8417797;28;19928;-71
2022/03/07 11:30:33;;;;;;;;;;;12.80;92.70;;;;;;8411898;28;19931;-71
2022/03/07 11:34:35;;;;;;;;;;;13.20;93.00;;;;;;8397965;28;20390;-71
2022/03/07 11:38:37;;;;;;;;;;;13.50;93.10;;;;;;8404508;28;19924;-71
2022/03/07 11:42:38;;;;;;;;;;;13.80;91.30;;;;;;8405323;28;20269;-71
2022/03/07 11:46:41;;;;;;;;;;;13.70;90.30;;;;;;8410315;28;19939;-70
2022/03/07 11:50:43;;;;;;;;;;;13.90;89.90;;;;;;8410651;28;19978;-71
2022/03/07 11:54:52;;;;;;;;;;;14.00;90.20;;;;;;8417245;28;19974;-70
2022/03/07 11:58:55;;;;;;;;;;;14.40;85.30;;;;;;8386540;28;19931;-71
2022/03/07 12:03:09;;;;;;;;;;;14.10;79.00;;;;;;8402812;28;19928;-71
2022/03/07 12:07:11;;;;;;;;;;;14.20;85.10;;;;;;8403915;28;21083;-71
2022/03/07 12:11:42;;;;;;;;;;;14.60;83.70;;;;;;8403604;28;20383;-70
2022/03/07 12:15:44;;;;;;;;;;;14.90;84.70;;;;;;8376257;28;19932;-71
2022/03/07 12:19:53;;;;;;;;;;;15.50;86.00;;;;;;8389970;28;19931;-71
2022/03/07 12:23:55;;;;;;;;;;;15.90;87.30;;;;;;8405429;28;19928;-71
2022/03/07 12:27:57;;;;;;;;;;;16.40;88.50;;;;;;8398396;28;19963;-71
2022/03/07 12:32:00;;;;;;;;;;;16.60;86.80;;;;;;8399048;28;19924;-71
2022/03/07 12:36:07;;;;;;;;;;;16.60;85.90;;;;;;8386877;28;19932;-72
2022/03/07 12:40:10;;;;;;;;;;;16.70;83.40;;;;;;8409413;28;19928;-71
2022/03/07 12:44:12;;;;;;;;;;;16.40;77.30;;;;;;8412903;28;19924;-71
2022/03/07 12:48:14;;;;;;;;;;;16.10;76.30;;;;;;8389267;28;20386;-71
2022/03/07 12:52:30;;;;;;;;;;;15.90;75.70;;;;;;8393867;28;19931;-71
2022/03/07 12:56:36;;;;;;;;;;;16.20;77.60;;;;;;8422062;28;19931;-71
2022/03/07 13:00:37;;;;;;;;;;;16.40;77.40;;;;;;8415781;28;20264;-71
2022/03/07 13:04:39;;;;;;;;;;;16.00;75.70;;;;;;8412965;28;19924;-71
2022/03/07 13:08:45;;;;;;;;;;;15.40;72.20;;;;;;8421040;28;20359;-71
2022/03/07 13:12:46;;;;;;;;;;;14.80;68.70;;;;;;8411706;28;20495;-71
2022/03/07 13:16:49;;;;;;;;;;;14.20;65.70;;;;;;8407380;28;19935;-71
2022/03/07 13:20:50;;;;;;;;;;;13.80;63.50;;;;;;8411887;28;19932;-70
2022/03/07 13:24:53;;;;;;;;;;;13.60;62.00;;;;;;8409384;28;20011;-70
2022/03/07 13:29:05;;;;;;;;;;;13.40;61.00;;;;;;8407750;28;19928;-70
2022/03/07 13:33:08;;;;;;;;;;;13.20;59.60;;;;;;8410427;28;20299;-70
2022/03/07 13:37:27;;;;;;;;;;;13.10;59.40;;;;;;8391118;28;19932;-70
2022/03/07 13:41:29;;;;;;;;;;;12.80;59.20;;;;;;8413597;28;19951;-72
2022/03/07 13:45:33;;;;;;;;;;;12.70;59.20;;;;;;8393418;28;19929;-70
2022/03/07 13:49:39;;;;;;;;;;;12.70;59.10;;;;;;8403392;28;19965;-70
2022/03/07 13:53:43;;;;;;;;;;;12.60;59.10;;;;;;8411770;28;20212;-70
2022/03/07 13:57:48;;;;;;;;;;;12.50;58.80;;;;;;8384637;28;19925;-70
2022/03/07 14:01:49;;;;;;;;;;;12.50;58.90;;;;;;8409006;28;19935;-70
2022/03/07 14:05:53;;;;;;;;;;;12.40;59.00;;;;;;8393920;28;19967;-70
2022/03/07 14:09:59;;;;;;;;;;;12.30;58.70;;;;;;8406813;28;19924;-70
2022/03/07 14:14:01;;;;;;;;;;;12.30;59.10;;;;;;8407919;28;19932;-70
2022/03/07 14:18:03;;;;;;;;;;;12.40;59.20;;;;;;8409240;28;19932;-70
2022/03/07 14:22:05;;;;;;;;;;;12.40;59.20;;;;;;8406206;28;20372;-70
2022/03/07 14:26:06;;;;;;;;;;;12.60;59.50;;;;;;8406768;28;19924;-70
2022/03/07 14:30:08;;;;;;;;;;;12.60;58.10;;;;;;8407717;28;19935;-70
2022/03/07 14:34:10;;;;;;;;;;;12.80;58.90;;;;;;8399077;28;19931;-70
2022/03/07 14:38:12;;;;;;;;;;;13.70;60.50;;;;;;8408999;28;20328;-70
2022/03/07 14:42:13;;;;;;;;;;;14.80;63.80;;;;;;8397399;28;19924;-70
2022/03/07 14:46:15;;;;;;;;;;;15.90;66.50;;;;;;8411346;28;19924;-71
2022/03/07 14:50:17;;;;;;;;;;;16.80;68.40;;;;;;8412853;28;19931;-71
2022/03/07 14:54:19;;;;;;;;;;;17.50;67.50;;;;;;8417320;28;20387;-71
2022/03/07 14:58:21;;;;;;;;;;;17.80;68.80;;;;;;8401716;28;20395;-71
2022/03/07 15:02:22;;;;;;;;;;;18.00;69.60;;;;;;8419466;28;20018;-71
2022/03/07 15:06:25;;;;;;;;;;;18.00;66.90;;;;;;8421178;28;19974;-70
2022/03/07 15:10:29;;;;;;;;;;;17.90;65.50;;;;;;8416939;28;19924;-71
2022/03/07 15:14:31;;;;;;;;;;;18.00;64.70;;;;;;8402871;28;20393;-71
2022/03/07 15:18:34;;;;;;;;;;;18.20;63.90;;;;;;8413366;28;19931;-71
2022/03/07 15:22:36;;;;;;;;;;;18.20;63.10;;;;;;8412756;28;20398;-71
2022/03/07 15:26:39;;;;;;;;;;;18.00;61.10;;;;;;8406019;28;19931;-71
2022/03/07 15:30:40;;;;;;;;;;;17.60;60.40;;;;;;8408839;28;20296;-71
2022/03/07 15:34:43;;;;;;;;;;;16.80;60.00;;;;;;8384765;28;19932;-71
2022/03/07 15:38:45;;;;;;;;;;;16.50;59.20;;;;;;8405152;28;19928;-71
2022/03/07 15:42:47;;;;;;;;;;;16.70;58.60;;;;;;8402845;28;19924;-71
2022/03/07 15:46:49;;;;;;;;;;;16.60;57.50;;;;;;8400769;28;20257;-71
2022/03/07 15:50:57;;;;;;;;;;;16.80;58.10;;;;;;8415998;28;19924;-71
2022/03/07 15:54:59;;;;;;;;;;;16.90;56.70;;;;;;8422950;28;19968;-71
2022/03/07 15:59:01;;;;;;;;;;;16.70;56.20;;;;;;8419047;28;19924;-71
2022/03/07 16:03:02;;;;;;;;;;;16.80;56.20;;;;;;8418081;28;19944;-71
2022/03/07 16:07:04;;;;;;;;;;;16.80;55.70;;;;;;8406843;28;19933;-71
2022/03/07 16:11:06;;;;;;;;;;;16.30;54.90;;;;;;8412158;28;20084;-71
2022/03/07 16:15:08;;;;;;;;;;;15.80;55.10;;;;;;8398480;28;19978;-71
2022/03/07 16:19:10;;;;;;;;;;;15.50;54.80;;;;;;8406746;28;19928;-71
2022/03/07 16:23:16;;;;;;;;;;;15.20;54.10;;;;;;8411861;28;20000;-71
2022/03/07 16:27:18;;;;;;;;;;;15.10;53.80;;;;;;8406877;28;19924;-71
2022/03/07 16:31:20;;;;;;;;;;;15.00;54.20;;;;;;8387198;28;19971;-71
2022/03/07 16:35:22;;;;;;;;;;;15.00;54.20;;;;;;8403615;28;20290;-71
2022/03/07 16:39:23;;;;;;;;;;;15.20;54.10;;;;;;8401535;28;20383;-71
2022/03/07 16:43:25;;;;;;;;;;;15.10;53.10;;;;;;8379859;28;19932;-71
2022/03/07 16:47:29;;;;;;;;;;;14.70;52.50;;;;;;8408944;28;19924;-71
2022/03/07 16:51:31;;;;;;;;;;;14.20;52.10;;;;;;8401422;28;19931;-71
2022/03/07 16:55:33;;;;;;;;;;;13.80;51.80;;;;;;8389186;28;19928;-70
2022/03/07 16:59:35;;;;;;;;;;;13.40;51.30;;;;;;8395274;28;20524;-70
2022/03/07 17:03:37;;;;;;;;;;;12.80;50.90;;;;;;8394766;28;19931;-70
2022/03/07 17:07:39;;;;;;;;;;;12.30;50.70;;;;;;8378774;28;20218;-71
2022/03/07 17:11:41;;;;;;;;;;;11.80;50.70;;;;;;8393325;28;20375;-70
2022/03/07 17:15:42;;;;;;;;;;;11.40;50.50;;;;;;8392479;28;19929;-71
2022/03/07 17:19:45;;;;;;;;;;;11.10;50.30;;;;;;8394577;28;20914;-70
2022/03/07 17:23:46;;;;;;;;;;;10.70;50.40;;;;;;8392227;28;20227;-70
2022/03/07 17:27:48;;;;;;;;;;;10.40;50.70;;;;;;8384693;28;20276;-70
2022/03/07 17:31:50;;;;;;;;;;;10.20;50.60;;;;;;8375508;28;20376;-71
2022/03/07 17:35:51;;;;;;;;;;;9.90;51.90;;;;;;8397633;28;19979;-69
2022/03/07 17:39:53;;;;;;;;;;;9.70;51.60;;;;;;8391656;28;19932;-70
2022/03/07 17:43:55;;;;;;;;;;;9.60;52.30;;;;;;8392406;28;19936;-70
2022/03/07 17:47:57;;;;;;;;;;;9.40;51.90;;;;;;8383906;28;19938;-70
2022/03/07 17:51:58;;;;;;;;;;;9.30;52.00;;;;;;8385522;28;19938;-70
2022/03/07 17:56:00;;;;;;;;;;;9.10;52.10;;;;;;8385198;28;19941;-70
2022/03/07 18:00:06;;;;;;;;;;;9.00;52.30;;;;;;8396545;28;19925;-70
2022/03/07 18:04:08;;;;;;;;;;;8.90;52.30;;;;;;8388922;28;19939;-70
2022/03/07 18:08:10;;;;;;;;;;;8.80;52.40;;;;;;8368641;28;19932;-70
2022/03/07 18:12:13;;;;;;;;;;;8.70;52.40;;;;;;8383489;28;19935;-70
2022/03/07 18:16:16;;;;;;;;;;;8.70;52.70;;;;;;8371797;28;19925;-71
2022/03/07 18:20:18;;;;;;;;;;;8.50;52.60;;;;;;8366477;28;19929;-71
2022/03/07 18:24:20;;;;;;;;;;;8.40;53.00;;;;;;8382380;28;20269;-71
2022/03/07 18:28:22;;;;;;;;;;;8.20;53.30;;;;;;8392223;28;19928;-70
2022/03/07 18:32:23;;;;;;;;;;;8.10;53.80;;;;;;8396809;28;19935;-70
2022/03/07 18:36:25;;;;;;;;;;;7.90;53.80;;;;;;8384699;28;20047;-70
2022/03/07 18:40:28;;;;;;;;;;;7.90;54.20;;;;;;8386132;28;20300;-70
2022/03/07 18:44:30;;;;;;;;;;;7.70;54.20;;;;;;8390077;28;20306;-71
2022/03/07 18:48:32;;;;;;;;;;;7.70;54.60;;;;;;8406925;28;19924;-70
2022/03/07 18:52:34;;;;;;;;;;;7.70;54.40;;;;;;8397151;28;20287;-70
2022/03/07 18:56:35;;;;;;;;;;;7.60;54.50;;;;;;8389711;28;19998;-70
2022/03/07 19:00:37;;;;;;;;;;;7.50;54.60;;;;;;8391598;28;19924;-70
2022/03/07 19:04:40;;;;;;;;;;;7.40;54.60;;;;;;8387666;28;19947;-70
2022/03/07 19:08:41;;;;;;;;;;;7.40;54.70;;;;;;8377367;28;19929;-70
2022/03/07 19:12:43;;;;;;;;;;;7.30;54.70;;;;;;8379670;28;20380;-70
2022/03/07 19:16:45;;;;;;;;;;;7.20;55.30;;;;;;8397711;28;20144;-70
2022/03/07 19:20:47;;;;;;;;;;;7.10;55.10;;;;;;8396828;28;20356;-70
2022/03/07 19:24:49;;;;;;;;;;;7.00;55.50;;;;;;8394231;28;19935;-70
2022/03/07 19:28:51;;;;;;;;;;;7.00;56.00;;;;;;8388362;28;19925;-70
2022/03/07 19:32:52;;;;;;;;;;;6.90;55.90;;;;;;8385118;28;19933;-70
2022/03/07 19:36:55;;;;;;;;;;;6.80;56.10;;;;;;8371026;28;20307;-71
2022/03/07 19:40:57;;;;;;;;;;;6.80;56.40;;;;;;8387724;28;20383;-70
2022/03/07 19:44:59;;;;;;;;;;;6.70;56.40;;;;;;8387033;28;19959;-70
2022/03/07 19:49:00;;;;;;;;;;;6.70;57.00;;;;;;8393210;28;19946;-71
2022/03/07 19:53:03;;;;;;;;;;;6.60;56.50;;;;;;8394165;28;19936;-70
2022/03/07 19:57:04;;;;;;;;;;;6.50;57.10;;;;;;8389558;28;19928;-70
2022/03/07 20:01:07;;;;;;;;;;;6.40;56.90;;;;;;8391024;28;19932;-70
2022/03/07 20:05:09;;;;;;;;;;;6.40;58.50;;;;;;8372752;28;19932;-70
2022/03/07 20:09:11;;;;;;;;;;;6.30;58.10;;;;;;8394545;28;19939;-70
2022/03/07 20:13:13;;;;;;;;;;;6.30;58.10;;;;;;8398188;28;19932;-70
2022/03/07 20:17:14;;;;;;;;;;;6.20;57.30;;;;;;8393148;28;20411;-71
2022/03/07 20:21:16;;;;;;;;;;;6.20;57.80;;;;;;8398719;28;19924;-71
2022/03/07 20:25:19;;;;;;;;;;;6.20;57.60;;;;;;8398394;28;19924;-69
2022/03/07 20:29:21;;;;;;;;;;;6.10;57.30;;;;;;8382557;28;19981;-70
2022/03/07 20:33:23;;;;;;;;;;;6.10;57.20;;;;;;8394641;28;20019;-70
2022/03/07 20:37:25;;;;;;;;;;;6.10;57.00;;;;;;8393802;28;19998;-70
2022/03/07 20:41:26;;;;;;;;;;;6.10;57.10;;;;;;8390023;28;20837;-70
2022/03/07 20:45:28;;;;;;;;;;;6.00;57.10;;;;;;8394579;28;20363;-70
2022/03/07 20:49:30;;;;;;;;;;;6.00;56.80;;;;;;8373087;28;19932;-70
2022/03/07 20:53:32;;;;;;;;;;;5.90;57.00;;;;;;8388253;28;20328;-70
2022/03/07 20:57:34;;;;;;;;;;;5.80;57.10;;;;;;8371229;28;19931;-70
2022/03/07 21:01:36;;;;;;;;;;;5.70;57.60;;;;;;8390034;28;19935;-70
2022/03/07 21:05:38;;;;;;;;;;;5.60;57.40;;;;;;8394151;28;19986;-70
2022/03/07 21:09:40;;;;;;;;;;;5.50;57.40;;;;;;8390220;28;19924;-70
2022/03/07 21:13:41;;;;;;;;;;;5.40;57.20;;;;;;8405086;28;19986;-70
2022/03/07 21:17:43;;;;;;;;;;;5.30;57.20;;;;;;8401203;28;19932;-70
2022/03/07 21:21:45;;;;;;;;;;;5.20;57.70;;;;;;8408532;28;19928;-70
2022/03/07 21:25:46;;;;;;;;;;;5.10;57.70;;;;;;8378793;28;19931;-70
2022/03/07 21:29:48;;;;;;;;;;;4.90;57.70;;;;;;8392795;28;19932;-70
2022/03/07 21:33:49;;;;;;;;;;;4.80;58.00;;;;;;8372901;28;19928;-71
2022/03/07 21:37:52;;;;;;;;;;;4.80;58.40;;;;;;8385511;28;19928;-70
2022/03/07 21:41:54;;;;;;;;;;;4.60;59.10;;;;;;8379017;28;20395;-70
2022/03/07 21:45:57;;;;;;;;;;;4.50;59.50;;;;;;8392834;28;20184;-70
2022/03/07 21:50:00;;;;;;;;;;;4.50;59.80;;;;;;8391820;28;19931;-70
2022/03/07 21:54:01;;;;;;;;;;;4.40;60.60;;;;;;8389814;28;19968;-70
2022/03/07 21:58:03;;;;;;;;;;;4.40;61.60;;;;;;8395309;28;19944;-70
2022/03/07 22:02:25;;;;;;;;;;;4.30;61.40;;;;;;8383986;28;20027;-70
2022/03/07 22:06:27;;;;;;;;;;;4.30;61.40;;;;;;8398134;28;19944;-70
2022/03/07 22:10:29;;;;;;;;;;;4.40;61.70;;;;;;8409484;28;19927;-70
2022/03/07 22:14:31;;;;;;;;;;;4.40;61.10;;;;;;8381662;28;19924;-69
2022/03/07 22:18:33;;;;;;;;;;;4.40;61.10;;;;;;8386213;28;19931;-70
2022/03/07 22:22:35;;;;;;;;;;;4.50;61.20;;;;;;8406063;28;20308;-70
2022/03/07 22:26:37;;;;;;;;;;;4.40;61.20;;;;;;8406234;28;19924;-70
2022/03/07 22:30:38;;;;;;;;;;;4.40;61.20;;;;;;8384958;28;20391;-70
2022/03/07 22:34:40;;;;;;;;;;;4.30;60.70;;;;;;8407984;28;19924;-70
2022/03/07 22:38:41;;;;;;;;;;;4.30;60.90;;;;;;8407063;28;19931;-70
2022/03/07 22:42:43;;;;;;;;;;;4.30;60.90;;;;;;8401351;28;19964;-70
2022/03/07 22:46:45;;;;;;;;;;;4.30;61.00;;;;;;8388878;28;19982;-70
2022/03/07 22:50:47;;;;;;;;;;;4.20;60.90;;;;;;8409302;28;20037;-70
2022/03/07 22:54:49;;;;;;;;;;;4.10;60.90;;;;;;8404319;28;20243;-70
2022/03/07 22:58:51;;;;;;;;;;;4.10;60.40;;;;;;8404921;28;20379;-70
2022/03/07 23:02:52;;;;;;;;;;;4.10;60.50;;;;;;8410251;28;19932;-70
2022/03/07 23:07:12;;;;;;;;;;;4.10;60.50;;;;;;8402439;28;19928;-70
2022/03/07 23:11:14;;;;;;;;;;;4.00;60.40;;;;;;8399156;28;19940;-70
2022/03/07 23:15:16;;;;;;;;;;;4.00;60.60;;;;;;8398648;28;20418;-70
2022/03/07 23:19:17;;;;;;;;;;;4.00;60.10;;;;;;8408698;28;20631;-70
2022/03/07 23:23:19;;;;;;;;;;;3.90;60.50;;;;;;8404549;28;19936;-70
2022/03/07 23:27:21;;;;;;;;;;;3.90;59.80;;;;;;8411288;28;19928;-70
2022/03/07 23:31:23;;;;;;;;;;;3.90;59.80;;;;;;8390921;28;19924;-70
2022/03/07 23:35:25;;;;;;;;;;;3.80;59.70;;;;;;8393219;28;19939;-70
2022/03/07 23:39:27;;;;;;;;;;;3.80;59.70;;;;;;8409073;28;19932;-70
2022/03/07 23:43:28;;;;;;;;;;;3.70;59.40;;;;;;8395091;28;20449;-70